Time;durP1;ratioP1;P1;durP2;ratioP2;P2;SDS_P1;SDS_P2;PMS_P1;PMS_P2;Temp;Humidity;BMP_temperature;BMP_pressure;BME280_temperature;BME280_humidity;BME280_pressure;Samples;Min_cycle;Max_cycle;Signal;HPM_P1;HPM_P2
2021/07/17 00:02:28;;;;;;;2.83;1.58;;;;;;;;;;10354359;28;20518;-27
2021/07/17 00:07:31;;;;;;;2.42;1.30;;;;;;;;;;10352227;28;20714;-26
2021/07/17 00:12:35;;;;;;;1.55;1.45;;;;;;;;;;10348131;28;20125;-25
2021/07/17 00:17:38;;;;;;;2.78;1.63;;;;;;;;;;10351447;28;20053;-27
2021/07/17 00:22:42;;;;;;;2.78;1.50;;;;;;;;;;10351850;28;20056;-25
2021/07/17 00:27:46;;;;;;;3.03;1.50;;;;;;;;;;10352276;28;20045;-25
2021/07/17 00:32:49;;;;;;;2.95;1.30;;;;;;;;;;10351200;28;20054;-25
2021/07/17 00:37:51;;;;;;;2.25;1.40;;;;;;;;;;10352356;28;20041;-25
2021/07/17 00:42:55;;;;;;;1.80;1.15;;;;;;;;;;10351507;28;20052;-25
2021/07/17 00:47:58;;;;;;;2.50;1.35;;;;;;;;;;10351644;28;20045;-25
2021/07/17 00:53:01;;;;;;;2.53;1.20;;;;;;;;;;10349976;28;20050;-25
2021/07/17 00:58:06;;;;;;;2.05;1.02;;;;;;;;;;10351529;28;20065;-25
2021/07/17 01:03:09;;;;;;;2.13;1.10;;;;;;;;;;10351215;28;20065;-27
2021/07/17 01:08:12;;;;;;;2.15;1.10;;;;;;;;;;10322126;28;20078;-26
2021/07/17 01:13:16;;;;;;;2.03;1.10;;;;;;;;;;10311189;28;20050;-25
2021/07/17 01:18:19;;;;;;;2.70;1.35;;;;;;;;;;10335850;28;20514;-25
2021/07/17 01:23:23;;;;;;;2.15;1.20;;;;;;;;;;10351769;28;20050;-25
2021/07/17 01:28:26;;;;;;;2.75;1.08;;;;;;;;;;10345475;28;20049;-25
2021/07/17 01:33:29;;;;;;;2.50;1.20;;;;;;;;;;10351593;28;20045;-25
2021/07/17 01:38:33;;;;;;;1.98;1.33;;;;;;;;;;10339916;28;20042;-26
2021/07/17 01:43:37;;;;;;;2.60;1.35;;;;;;;;;;10349940;28;20058;-26
2021/07/17 01:48:40;;;;;;;2.05;1.02;;;;;;;;;;10350678;28;20041;-26
2021/07/17 01:53:44;;;;;;;2.45;1.15;;;;;;;;;;10348862;28;20491;-26
2021/07/17 01:58:49;;;;;;;2.45;1.10;;;;;;;;;;10352080;28;20057;-25
2021/07/17 02:03:52;;;;;;;1.40;1.02;;;;;;;;;;10342998;28;20388;-25
2021/07/17 02:08:56;;;;;;;1.17;1.00;;;;;;;;;;10351796;28;20842;-26
2021/07/17 02:13:59;;;;;;;2.70;1.27;;;;;;;;;;10349611;28;20052;-26
2021/07/17 02:19:05;;;;;;;1.83;1.13;;;;;;;;;;10351350;28;20495;-25
2021/07/17 02:24:09;;;;;;;1.77;1.25;;;;;;;;;;10350365;28;20050;-26
2021/07/17 02:29:12;;;;;;;1.85;1.10;;;;;;;;;;10357185;28;20054;-25
2021/07/17 02:34:15;;;;;;;1.23;0.90;;;;;;;;;;10358010;28;20041;-26
2021/07/17 02:39:19;;;;;;;2.22;1.08;;;;;;;;;;10356599;28;20471;-25
2021/07/17 02:44:21;;;;;;;1.23;1.05;;;;;;;;;;10357814;28;20037;-25
2021/07/17 02:49:24;;;;;;;1.38;1.00;;;;;;;;;;10360074;28;20038;-26
2021/07/17 02:54:28;;;;;;;1.67;1.08;;;;;;;;;;10357790;28;20140;-27
2021/07/17 02:59:31;;;;;;;1.95;1.10;;;;;;;;;;10331581;28;20398;-25
2021/07/17 03:04:33;;;;;;;1.70;1.00;;;;;;;;;;10357916;28;20081;-25
2021/07/17 03:09:38;;;;;;;2.92;1.08;;;;;;;;;;10344496;28;20141;-25
2021/07/17 03:14:40;;;;;;;1.55;0.85;;;;;;;;;;10355760;28;20049;-26
2021/07/17 03:19:43;;;;;;;1.40;1.05;;;;;;;;;;10356923;28;20038;-26
2021/07/17 03:24:47;;;;;;;2.65;1.10;;;;;;;;;;10356269;28;20046;-26
2021/07/17 03:29:50;;;;;;;1.58;1.00;;;;;;;;;;10354725;28;20468;-26
2021/07/17 03:34:53;;;;;;;2.22;1.40;;;;;;;;;;10357721;28;20125;-25
2021/07/17 03:39:57;;;;;;;1.63;1.20;;;;;;;;;;10356022;28;20048;-26
2021/07/17 03:45:00;;;;;;;1.38;0.98;;;;;;;;;;10353902;28;20053;-25
2021/07/17 03:50:04;;;;;;;2.00;1.20;;;;;;;;;;10357160;28;20049;-27
2021/07/17 03:55:12;;;;;;;1.77;1.10;;;;;;;;;;10352965;28;20067;-26
2021/07/17 04:00:16;;;;;;;1.75;1.30;;;;;;;;;;10349518;28;20085;-26
2021/07/17 04:05:19;;;;;;;1.83;1.20;;;;;;;;;;10351104;28;20046;-26
2021/07/17 04:10:23;;;;;;;1.88;1.10;;;;;;;;;;10351233;28;20042;-26
2021/07/17 04:15:26;;;;;;;2.60;1.50;;;;;;;;;;10349540;28;20061;-25
2021/07/17 04:20:29;;;;;;;2.03;1.33;;;;;;;;;;10351834;28;20048;-26
2021/07/17 04:25:33;;;;;;;2.20;1.30;;;;;;;;;;10349403;28;20042;-27
2021/07/17 04:30:36;;;;;;;1.95;1.45;;;;;;;;;;10349160;28;20045;-26
2021/07/17 04:35:40;;;;;;;2.97;1.60;;;;;;;;;;10346547;28;20505;-20
2021/07/17 04:40:44;;;;;;;1.58;1.48;;;;;;;;;;10347153;28;20046;-20
2021/07/17 04:45:49;;;;;;;2.88;1.38;;;;;;;;;;10350193;28;20058;-20
2021/07/17 04:50:52;;;;;;;3.00;1.67;;;;;;;;;;10337681;28;20053;-20
2021/07/17 04:55:56;;;;;;;3.42;1.70;;;;;;;;;;10345349;28;20491;-21
2021/07/17 05:00:59;;;;;;;1.70;1.50;;;;;;;;;;10349166;28;20484;-21
2021/07/17 05:06:02;;;;;;;2.95;1.60;;;;;;;;;;10349072;28;20038;-20
2021/07/17 05:11:07;;;;;;;2.00;1.42;;;;;;;;;;10339642;28;20493;-20
2021/07/17 05:16:10;;;;;;;2.50;1.90;;;;;;;;;;10343254;28;20378;-20
2021/07/17 05:21:17;;;;;;;4.00;1.80;;;;;;;;;;10347523;28;20045;-20
2021/07/17 05:26:24;;;;;;;2.25;1.63;;;;;;;;;;10345536;28;20920;-20
2021/07/17 05:31:28;;;;;;;2.65;1.83;;;;;;;;;;10343861;28;20061;-20
2021/07/17 05:36:30;;;;;;;1.85;1.60;;;;;;;;;;10345041;28;20057;-20
2021/07/17 05:41:36;;;;;;;2.53;1.92;;;;;;;;;;10354992;28;20053;-21
2021/07/17 05:46:39;;;;;;;2.58;1.75;;;;;;;;;;10317221;28;20680;-21
2021/07/17 05:51:43;;;;;;;3.53;1.77;;;;;;;;;;10313184;28;20054;-21
2021/07/17 05:56:47;;;;;;;2.08;1.65;;;;;;;;;;10312537;28;20516;-21
2021/07/17 06:01:50;;;;;;;2.92;1.67;;;;;;;;;;10322395;28;20062;-21
2021/07/17 06:06:53;;;;;;;2.08;1.70;;;;;;;;;;10336458;28;20054;-21
2021/07/17 06:11:57;;;;;;;2.47;1.58;;;;;;;;;;10329500;28;20054;-22
2021/07/17 06:17:00;;;;;;;2.80;1.50;;;;;;;;;;10328725;28;20039;-21
2021/07/17 06:22:04;;;;;;;2.05;1.30;;;;;;;;;;10326233;28;20454;-20
2021/07/17 06:27:09;;;;;;;1.90;1.25;;;;;;;;;;10324641;28;20046;-20
2021/07/17 06:32:12;;;;;;;2.42;1.58;;;;;;;;;;10325820;28;20064;-19
2021/07/17 06:37:14;;;;;;;1.40;1.13;;;;;;;;;;10321299;28;20407;-20
2021/07/17 06:42:19;;;;;;;1.33;1.20;;;;;;;;;;10319217;28;20060;-20
2021/07/17 06:47:22;;;;;;;2.08;1.30;;;;;;;;;;10321034;28;20046;-20
2021/07/17 06:52:24;;;;;;;1.08;0.98;;;;;;;;;;10319175;28;20039;-21
2021/07/17 06:57:28;;;;;;;1.23;1.00;;;;;;;;;;10314332;28;20046;-21
2021/07/17 07:02:31;;;;;;;1.90;1.30;;;;;;;;;;10310361;28;20538;-21
2021/07/17 07:07:35;;;;;;;1.42;1.23;;;;;;;;;;10310484;28;20609;-21
2021/07/17 07:12:40;;;;;;;2.10;1.20;;;;;;;;;;10307130;28;20544;-20
2021/07/17 07:17:43;;;;;;;2.08;1.08;;;;;;;;;;10308393;28;20050;-20
2021/07/17 07:22:46;;;;;;;1.05;0.80;;;;;;;;;;10300714;28;20046;-21
2021/07/17 07:27:50;;;;;;;2.17;0.95;;;;;;;;;;10302008;28;20035;-20
2021/07/17 07:32:53;;;;;;;0.80;0.70;;;;;;;;;;10297371;28;20075;-20
2021/07/17 07:37:56;;;;;;;0.70;0.70;;;;;;;;;;10310408;28;20049;-21
2021/07/17 07:43:00;;;;;;;0.90;0.80;;;;;;;;;;10314817;28;20052;-21
2021/07/17 07:48:04;;;;;;;0.80;0.70;;;;;;;;;;10328039;28;20041;-22
2021/07/17 07:53:07;;;;;;;0.60;0.60;;;;;;;;;;10336246;28;20050;-21
2021/07/17 07:58:11;;;;;;;1.20;0.73;;;;;;;;;;10333154;28;20864;-22
2021/07/17 08:03:14;;;;;;;1.63;0.70;;;;;;;;;;10327584;28;20403;-21
2021/07/17 08:08:17;;;;;;;1.08;0.70;;;;;;;;;;10327807;28;20053;-22
2021/07/17 08:13:21;;;;;;;1.10;0.60;;;;;;;;;;10322775;28;20066;-21
2021/07/17 08:18:27;;;;;;;1.50;0.70;;;;;;;;;;10329320;28;20042;-22
2021/07/17 08:23:31;;;;;;;0.77;0.60;;;;;;;;;;10319866;28;20046;-22
2021/07/17 08:28:35;;;;;;;2.10;0.80;;;;;;;;;;10318792;28;20038;-22
2021/07/17 08:33:38;;;;;;;0.85;0.70;;;;;;;;;;10318980;28;20499;-22
2021/07/17 08:38:41;;;;;;;0.68;0.60;;;;;;;;;;10314796;28;20048;-22
2021/07/17 08:43:46;;;;;;;0.65;0.50;;;;;;;;;;10313772;28;20038;-23
2021/07/17 08:48:49;;;;;;;1.02;0.60;;;;;;;;;;10314897;28;20050;-23
2021/07/17 08:53:53;;;;;;;0.70;0.50;;;;;;;;;;10310400;28;20058;-23
2021/07/17 08:58:57;;;;;;;0.80;0.60;;;;;;;;;;10303422;28;20039;-23
2021/07/17 09:03:59;;;;;;;0.93;0.50;;;;;;;;;;10308077;28;20050;-23
2021/07/17 09:09:04;;;;;;;0.80;0.68;;;;;;;;;;10301456;28;20507;-23
2021/07/17 09:14:09;;;;;;;1.40;0.70;;;;;;;;;;10301366;28;20047;-23
2021/07/17 09:19:13;;;;;;;0.77;0.57;;;;;;;;;;10296456;28;21012;-23
2021/07/17 09:24:19;;;;;;;0.80;0.63;;;;;;;;;;10311997;28;20043;-23
2021/07/17 09:29:33;;;;;;;0.75;0.60;;;;;;;;;;10314394;28;20054;-24
2021/07/17 09:34:36;;;;;;;1.23;0.77;;;;;;;;;;10334594;28;20384;-23
2021/07/17 09:39:40;;;;;;;1.42;0.80;;;;;;;;;;10336993;28;20044;-23
2021/07/17 09:44:44;;;;;;;0.90;0.73;;;;;;;;;;10330774;28;20121;-23
2021/07/17 09:49:47;;;;;;;1.40;0.80;;;;;;;;;;10335207;28;20050;-23
2021/07/17 09:55:04;;;;;;;0.73;0.70;;;;;;;;;;10333495;28;20055;-23
2021/07/17 10:00:09;;;;;;;1.35;0.80;;;;;;;;;;10325613;28;20073;-24
2021/07/17 10:05:37;;;;;;;1.40;0.80;;;;;;;;;;10326128;28;20573;-23
2021/07/17 10:10:40;;;;;;;1.25;0.82;;;;;;;;;;10326691;28;20050;-22
2021/07/17 10:15:44;;;;;;;1.83;0.80;;;;;;;;;;10323886;28;20046;-23
2021/07/17 10:20:47;;;;;;;1.17;0.80;;;;;;;;;;10323446;28;20038;-22
2021/07/17 10:25:50;;;;;;;2.53;1.00;;;;;;;;;;10323648;28;20050;-22
2021/07/17 10:30:55;;;;;;;1.63;0.95;;;;;;;;;;10318631;28;20055;-22
2021/07/17 10:35:59;;;;;;;1.40;1.00;;;;;;;;;;10312501;28;20050;-22
2021/07/17 10:41:02;;;;;;;1.95;1.13;;;;;;;;;;10318136;28;20044;-23
2021/07/17 10:46:25;;;;;;;1.98;1.30;;;;;;;;;;10320930;28;20153;-23
2021/07/17 10:51:33;;;;;;;1.70;1.20;;;;;;;;;;10319348;28;20096;-23
2021/07/17 10:56:40;;;;;;;2.00;1.30;;;;;;;;;;10314018;28;20046;-23
2021/07/17 11:02:04;;;;;;;1.95;1.58;;;;;;;;;;10308769;28;20049;-23
2021/07/17 11:07:39;;;;;;;2.10;1.50;;;;;;;;;;10318844;28;20048;-23
2021/07/17 11:12:47;;;;;;;1.88;1.50;;;;;;;;;;10297287;28;20042;-23
2021/07/17 11:17:52;;;;;;;2.35;1.50;;;;;;;;;;10301890;28;20045;-23
2021/07/17 11:23:00;;;;;;;2.72;1.80;;;;;;;;;;10300889;28;20042;-23
2021/07/17 11:28:03;;;;;;;2.25;1.70;;;;;;;;;;10301979;28;20133;-23
2021/07/17 11:33:16;;;;;;;2.20;1.88;;;;;;;;;;10282456;28;1132297;-23
2021/07/17 11:38:19;;;;;;;2.83;1.88;;;;;;;;;;10330461;28;20077;-24
2021/07/17 11:43:26;;;;;;;3.53;2.22;;;;;;;;;;10326342;28;20049;-24
2021/07/17 11:48:30;;;;;;;2.72;2.00;;;;;;;;;;10321721;28;20068;-24
2021/07/17 11:53:34;;;;;;;3.03;2.20;;;;;;;;;;10323731;28;20058;-24
2021/07/17 11:58:37;;;;;;;2.30;2.10;;;;;;;;;;10326194;28;20064;-24
2021/07/17 12:03:44;;;;;;;2.90;2.40;;;;;;;;;;10321871;28;20046;-24
2021/07/17 12:08:50;;;;;;;2.60;2.40;;;;;;;;;;10321382;28;20042;-24
2021/07/17 12:14:13;;;;;;;3.85;2.80;;;;;;;;;;10315818;28;20433;-24
2021/07/17 12:19:19;;;;;;;3.40;2.50;;;;;;;;;;10312588;28;20393;-24
2021/07/17 12:24:22;;;;;;;3.42;2.50;;;;;;;;;;10313742;28;20415;-24
2021/07/17 12:29:27;;;;;;;2.78;2.53;;;;;;;;;;10310684;28;20046;-24
2021/07/17 12:34:33;;;;;;;3.05;2.70;;;;;;;;;;10308305;28;20049;-24
2021/07/17 12:39:36;;;;;;;3.22;2.60;;;;;;;;;;10305551;28;20065;-24
2021/07/17 12:44:40;;;;;;;2.83;2.60;;;;;;;;;;10304232;28;20133;-24
2021/07/17 12:49:45;;;;;;;2.72;2.53;;;;;;;;;;10309929;28;20100;-24
2021/07/17 12:54:48;;;;;;;2.78;2.40;;;;;;;;;;10305471;28;20070;-24
2021/07/17 12:59:51;;;;;;;2.33;2.13;;;;;;;;;;10299997;28;20077;-24
2021/07/17 13:04:55;;;;;;;3.08;2.60;;;;;;;;;;10303374;28;20396;-24
2021/07/17 13:09:59;;;;;;;2.53;2.33;;;;;;;;;;10294718;28;20042;-24
2021/07/17 13:15:01;;;;;;;2.15;1.90;;;;;;;;;;10313346;28;20214;-24
2021/07/17 13:20:07;;;;;;;1.90;1.70;;;;;;;;;;10332938;28;20048;-24
2021/07/17 13:25:12;;;;;;;2.00;1.80;;;;;;;;;;10319801;28;20053;-24
2021/07/17 13:30:16;;;;;;;1.65;1.48;;;;;;;;;;10324020;28;20205;-25
2021/07/17 13:35:29;;;;;;;2.13;1.48;;;;;;;;;;10324321;28;20079;-25
2021/07/17 13:40:38;;;;;;;1.40;1.17;;;;;;;;;;10319366;28;20042;-25
2021/07/17 13:45:43;;;;;;;1.67;1.17;;;;;;;;;;10317303;28;20039;-24
2021/07/17 13:50:48;;;;;;;1.88;1.30;;;;;;;;;;10327090;28;20046;-24
2021/07/17 13:55:53;;;;;;;1.52;1.00;;;;;;;;;;10317233;28;20133;-25
2021/07/17 14:00:56;;;;;;;1.20;1.00;;;;;;;;;;10317149;28;20046;-24
2021/07/17 14:06:06;;;;;;;1.30;1.10;;;;;;;;;;10310825;28;20129;-24
2021/07/17 14:11:11;;;;;;;1.45;1.02;;;;;;;;;;10314052;28;20161;-24
2021/07/17 14:16:14;;;;;;;1.33;0.90;;;;;;;;;;10316059;28;20156;-24
2021/07/17 14:21:18;;;;;;;1.20;0.70;;;;;;;;;;10311981;28;20050;-24
2021/07/17 14:26:21;;;;;;;0.82;0.75;;;;;;;;;;10313228;28;21150;-26
2021/07/17 14:31:25;;;;;;;1.17;0.98;;;;;;;;;;10311963;28;20073;-24
2021/07/17 14:36:29;;;;;;;1.42;0.90;;;;;;;;;;10317375;28;20061;-24
2021/07/17 14:41:32;;;;;;;1.00;0.90;;;;;;;;;;10307811;28;20049;-24
2021/07/17 14:46:35;;;;;;;1.25;0.80;;;;;;;;;;10308904;28;20050;-24
2021/07/17 14:51:39;;;;;;;1.00;0.80;;;;;;;;;;10299050;28;20132;-24
2021/07/17 14:56:42;;;;;;;0.90;0.70;;;;;;;;;;10304822;28;20046;-25
2021/07/17 15:01:45;;;;;;;0.70;0.70;;;;;;;;;;10299199;28;20051;-24
2021/07/17 15:06:50;;;;;;;0.82;0.70;;;;;;;;;;10344992;28;20054;-24
2021/07/17 15:11:53;;;;;;;0.65;0.50;;;;;;;;;;10321632;28;20078;-24
2021/07/17 15:16:56;;;;;;;0.93;0.50;;;;;;;;;;10331382;28;20053;-24
2021/07/17 15:22:00;;;;;;;1.08;0.70;;;;;;;;;;10333546;28;20055;-24
2021/07/17 15:27:04;;;;;;;0.73;0.73;;;;;;;;;;10328732;28;20050;-23
2021/07/17 15:32:07;;;;;;;0.75;0.50;;;;;;;;;;10326410;28;20055;-23
2021/07/17 15:37:12;;;;;;;0.40;0.40;;;;;;;;;;10325410;28;20038;-24
2021/07/17 15:42:14;;;;;;;0.77;0.40;;;;;;;;;;10324415;28;20498;-24
2021/07/17 15:47:17;;;;;;;0.40;0.40;;;;;;;;;;10319828;28;20053;-24
2021/07/17 15:52:21;;;;;;;0.60;0.40;;;;;;;;;;10321926;28;20054;-24
2021/07/17 15:57:24;;;;;;;0.70;0.32;;;;;;;;;;10318650;28;20470;-23
2021/07/17 16:02:29;;;;;;;0.73;0.35;;;;;;;;;;10320958;28;20043;-24
2021/07/17 16:07:34;;;;;;;0.38;0.30;;;;;;;;;;10311804;28;20046;-24
2021/07/17 16:12:37;;;;;;;0.57;0.50;;;;;;;;;;10316110;28;20054;-23
2021/07/17 16:17:40;;;;;;;0.50;0.45;;;;;;;;;;10314564;28;20039;-24
2021/07/17 16:22:44;;;;;;;0.57;0.30;;;;;;;;;;10314883;28;20428;-24
2021/07/17 16:27:49;;;;;;;0.30;0.28;;;;;;;;;;10306273;28;20078;-23
2021/07/17 16:32:52;;;;;;;0.90;0.38;;;;;;;;;;10304739;28;20456;-24
2021/07/17 16:37:56;;;;;;;0.30;0.30;;;;;;;;;;10304121;28;20395;-24
2021/07/17 16:42:59;;;;;;;0.30;0.30;;;;;;;;;;10306096;28;20041;-24
2021/07/17 16:48:03;;;;;;;0.20;0.17;;;;;;;;;;10298912;28;20046;-23
2021/07/17 16:53:07;;;;;;;0.38;0.20;;;;;;;;;;10313380;28;20035;-23
2021/07/17 16:58:09;;;;;;;0.15;0.15;;;;;;;;;;10313439;28;20050;-24
2021/07/17 17:03:15;;;;;;;1.13;0.10;;;;;;;;;;10322316;28;20052;-23
2021/07/17 17:08:19;;;;;;;0.17;0.15;;;;;;;;;;10329616;28;20045;-24
2021/07/17 17:13:24;;;;;;;0.70;0.20;;;;;;;;;;10329115;28;20046;-24
2021/07/17 17:18:27;;;;;;;0.10;0.10;;;;;;;;;;10330606;28;20459;-23
2021/07/17 17:23:33;;;;;;;1.08;0.10;;;;;;;;;;10324062;28;20042;-23
2021/07/17 17:28:36;;;;;;;0.00;0.00;;;;;;;;;;10321702;28;20046;-23
2021/07/17 17:33:38;;;;;;;0.10;0.10;;;;;;;;;;10321399;28;20043;-23
2021/07/17 17:38:43;;;;;;;0.25;0.10;;;;;;;;;;10319147;28;20043;-23
2021/07/17 17:43:45;;;;;;;0.17;0.03;;;;;;;;;;10319461;28;20054;-23
2021/07/17 17:48:48;;;;;;;0.10;0.10;;;;;;;;;;10316172;28;20510;-23
2021/07/17 17:53:52;;;;;;;0.10;0.00;;;;;;;;;;10315822;28;20049;-24
2021/07/17 17:58:55;;;;;;;0.65;0.13;;;;;;;;;;10319496;28;20781;-23
2021/07/17 18:03:58;;;;;;;0.38;0.20;;;;;;;;;;10323342;28;20050;-20
2021/07/17 18:09:02;;;;;;;0.65;0.10;;;;;;;;;;10324627;28;20069;-22
2021/07/17 18:14:07;;;;;;;0.10;0.10;;;;;;;;;;10317471;28;20789;-21
2021/07/17 18:19:10;;;;;;;0.40;0.10;;;;;;;;;;10315307;28;20052;-21
2021/07/17 18:24:14;;;;;;;0.00;0.00;;;;;;;;;;10313732;28;20038;-22
2021/07/17 18:29:17;;;;;;;1.00;0.10;;;;;;;;;;10308270;28;20104;-22
2021/07/17 18:34:21;;;;;;;0.17;0.10;;;;;;;;;;10317798;28;20046;-22
2021/07/17 18:39:25;;;;;;;0.10;0.03;;;;;;;;;;10307432;28;20051;-21
2021/07/17 18:44:28;;;;;;;0.10;0.10;;;;;;;;;;10303842;28;20047;-22
2021/07/17 18:49:30;;;;;;;0.10;0.10;;;;;;;;;;10322951;28;20046;-21
2021/07/17 18:54:34;;;;;;;0.40;0.10;;;;;;;;;;10337952;28;20042;-22
2021/07/17 18:59:38;;;;;;;0.15;0.10;;;;;;;;;;10337407;28;20060;-22
2021/07/17 19:04:41;;;;;;;0.47;0.00;;;;;;;;;;10335902;28;20048;-22
2021/07/17 19:09:45;;;;;;;0.50;0.10;;;;;;;;;;10327104;28;20051;-21
2021/07/17 19:14:48;;;;;;;0.90;0.20;;;;;;;;;;10328456;28;20042;-21
2021/07/17 19:19:50;;;;;;;0.52;0.10;;;;;;;;;;10330070;28;20057;-21
2021/07/17 19:24:55;;;;;;;0.25;0.00;;;;;;;;;;10322332;28;20049;-21
2021/07/17 19:29:58;;;;;;;0.40;0.10;;;;;;;;;;10325134;28;20086;-21
2021/07/17 19:35:01;;;;;;;0.20;0.10;;;;;;;;;;10323330;28;20053;-21
2021/07/17 19:40:06;;;;;;;0.30;0.15;;;;;;;;;;10321464;28;20463;-22
2021/07/17 19:45:10;;;;;;;0.15;0.13;;;;;;;;;;10319216;28;20042;-23
2021/07/17 19:50:14;;;;;;;0.50;0.10;;;;;;;;;;10323403;28;20043;-21
2021/07/17 19:55:18;;;;;;;0.17;0.10;;;;;;;;;;10311427;28;20390;-21
2021/07/17 20:00:21;;;;;;;1.15;0.20;;;;;;;;;;10315271;28;20061;-22
2021/07/17 20:05:24;;;;;;;1.08;0.20;;;;;;;;;;10313495;28;20053;-21
2021/07/17 20:10:27;;;;;;;0.25;0.10;;;;;;;;;;10309811;28;20157;-21
2021/07/17 20:15:30;;;;;;;0.50;0.10;;;;;;;;;;10309192;28;20053;-21
2021/07/17 20:20:33;;;;;;;0.22;0.13;;;;;;;;;;10299740;28;20057;-21
2021/07/17 20:25:37;;;;;;;0.40;0.10;;;;;;;;;;10303666;28;20039;-21
2021/07/17 20:30:40;;;;;;;0.25;0.20;;;;;;;;;;10301848;28;20061;-22
2021/07/17 20:35:43;;;;;;;1.00;0.20;;;;;;;;;;10304162;28;20057;-22
2021/07/17 20:40:48;;;;;;;0.35;0.20;;;;;;;;;;10306277;28;20045;-21
2021/07/17 20:45:51;;;;;;;0.60;0.17;;;;;;;;;;10327136;28;20054;-21
2021/07/17 20:50:55;;;;;;;0.10;0.10;;;;;;;;;;10329921;28;20168;-22
2021/07/17 20:55:59;;;;;;;0.65;0.25;;;;;;;;;;10327040;28;20835;-22
2021/07/17 21:01:03;;;;;;;0.57;0.10;;;;;;;;;;10326211;28;20049;-24
2021/07/17 21:06:06;;;;;;;0.20;0.10;;;;;;;;;;10325185;28;20046;-22
2021/07/17 21:11:10;;;;;;;0.32;0.10;;;;;;;;;;10326115;28;20305;-21
2021/07/17 21:16:13;;;;;;;1.48;0.20;;;;;;;;;;10322264;28;20039;-22
2021/07/17 21:21:16;;;;;;;0.40;0.20;;;;;;;;;;10323069;28;20144;-21
2021/07/17 21:26:22;;;;;;;0.43;0.20;;;;;;;;;;10320455;28;20046;-21
2021/07/17 21:31:24;;;;;;;0.57;0.20;;;;;;;;;;10313383;28;20050;-22
2021/07/17 21:36:27;;;;;;;0.50;0.20;;;;;;;;;;10323360;28;20447;-22
2021/07/17 21:41:31;;;;;;;0.25;0.10;;;;;;;;;;10322103;28;20050;-22
2021/07/17 21:46:34;;;;;;;0.30;0.20;;;;;;;;;;10319638;28;20048;-21
2021/07/17 21:51:38;;;;;;;0.35;0.20;;;;;;;;;;10314755;28;20060;-22
2021/07/17 21:56:42;;;;;;;0.50;0.20;;;;;;;;;;10318093;28;20051;-22
2021/07/17 22:01:45;;;;;;;0.52;0.20;;;;;;;;;;10323344;28;20057;-21
2021/07/17 22:06:47;;;;;;;0.32;0.13;;;;;;;;;;10315565;28;20074;-22
2021/07/17 22:11:55;;;;;;;0.93;0.30;;;;;;;;;;10307516;28;20134;-21
2021/07/17 22:17:01;;;;;;;0.47;0.28;;;;;;;;;;10312472;28;20046;-21
2021/07/17 22:22:04;;;;;;;0.63;0.30;;;;;;;;;;10304962;28;20117;-21
2021/07/17 22:27:09;;;;;;;0.30;0.20;;;;;;;;;;10306589;28;20047;-23
2021/07/17 22:32:11;;;;;;;0.10;0.10;;;;;;;;;;10315681;28;20414;-21
2021/07/17 22:37:14;;;;;;;1.08;0.40;;;;;;;;;;10316651;28;20057;-21
2021/07/17 22:42:18;;;;;;;0.32;0.10;;;;;;;;;;10333150;28;20525;-21
2021/07/17 22:47:22;;;;;;;1.55;0.30;;;;;;;;;;10334826;28;20054;-21
2021/07/17 22:52:25;;;;;;;0.30;0.30;;;;;;;;;;10331466;28;20046;-21
2021/07/17 22:57:30;;;;;;;0.65;0.17;;;;;;;;;;10331664;28;20042;-21
2021/07/17 23:02:32;;;;;;;0.25;0.22;;;;;;;;;;10330385;28;20054;-20
2021/07/17 23:07:35;;;;;;;0.45;0.20;;;;;;;;;;10329541;28;20050;-21
2021/07/17 23:12:40;;;;;;;1.20;0.38;;;;;;;;;;10324901;28;20052;-21
2021/07/17 23:17:44;;;;;;;0.40;0.20;;;;;;;;;;10325772;28;20045;-20
2021/07/17 23:22:48;;;;;;;0.38;0.20;;;;;;;;;;10320008;28;20125;-21
2021/07/17 23:27:52;;;;;;;0.30;0.20;;;;;;;;;;10320067;28;20038;-22
2021/07/17 23:32:55;;;;;;;0.28;0.15;;;;;;;;;;10317120;28;20050;-22
2021/07/17 23:37:58;;;;;;;1.25;0.30;;;;;;;;;;10318140;28;20499;-22
2021/07/17 23:43:02;;;;;;;0.57;0.20;;;;;;;;;;10310830;28;20061;-22
2021/07/17 23:48:05;;;;;;;0.38;0.20;;;;;;;;;;10308737;28;20042;-22
2021/07/17 23:53:09;;;;;;;0.20;0.20;;;;;;;;;;10318965;28;20504;-22
2021/07/17 23:58:13;;;;;;;0.43;0.20;;;;;;;;;;10306104;28;20705;-22
